createdAt,value
2023-03-07T00:02:53.311Z,3.81
2023-03-07T00:06:10.524Z,3.84
2023-03-07T00:09:05.688Z,3.59
2023-03-07T00:12:45.412Z,3.42
2023-03-07T00:15:59.576Z,3.26
2023-03-07T00:18:48.929Z,3.84
2023-03-07T00:25:04.292Z,4.19
2023-03-07T00:27:52.080Z,4.14
2023-03-07T00:30:45.496Z,4.27
2023-03-07T00:33:33.784Z,4.33
2023-03-07T00:36:23.171Z,4.24
2023-03-07T00:39:11.395Z,4.02
2023-03-07T00:41:59.088Z,4.31
2023-03-07T00:44:46.897Z,4.17
2023-03-07T00:47:44.939Z,4.18
2023-03-07T00:50:34.453Z,4.14
2023-03-07T00:53:25.398Z,4.31
2023-03-07T00:56:24.723Z,4.24
2023-03-07T00:59:12.357Z,4.23
2023-03-07T01:02:00.191Z,4.14
2023-03-07T01:04:47.951Z,4.12
2023-03-07T01:07:35.656Z,4.29
2023-03-07T01:10:23.392Z,4.29
2023-03-07T01:13:12.514Z,4.39
2023-03-07T01:16:21.202Z,4.47
2023-03-07T01:19:12.842Z,4.47
2023-03-07T01:22:01.476Z,4.36
2023-03-07T01:24:52.574Z,4.35
2023-03-07T01:27:40.725Z,4.29
2023-03-07T01:30:28.712Z,4.37
2023-03-07T01:33:16.818Z,4.39
2023-03-07T01:36:05.632Z,4.48
2023-03-07T01:39:02.831Z,4.47
2023-03-07T01:41:50.770Z,4.57
2023-03-07T01:45:08.527Z,4.67
2023-03-07T01:48:09.247Z,4.71
2023-03-07T01:50:57.144Z,4.73
2023-03-07T01:53:46.079Z,4.57
2023-03-07T01:56:35.879Z,4.83
2023-03-07T01:59:33.603Z,4.67
2023-03-07T02:02:23.100Z,4.87
2023-03-07T02:05:15.869Z,4.89
2023-03-07T02:08:03.526Z,4.83
2023-03-07T02:10:54.192Z,4.74
2023-03-07T02:13:42.110Z,4.97
2023-03-07T02:16:30.143Z,4.96
2023-03-07T02:19:51.912Z,5.01
2023-03-07T02:22:41.222Z,5.00
2023-03-07T02:25:34.853Z,5.07
2023-03-07T02:28:23.285Z,5.10
2023-03-07T02:31:11.825Z,5.11
2023-03-07T02:34:02.183Z,5.21
2023-03-07T02:36:57.190Z,5.19
2023-03-07T02:39:46.681Z,5.32
2023-03-07T02:42:39.308Z,5.16
2023-03-07T02:45:31.150Z,4.99
2023-03-07T02:48:19.096Z,4.96
2023-03-07T02:51:06.825Z,5.11
2023-03-07T02:53:54.781Z,5.06
2023-03-07T02:56:42.929Z,4.99
2023-03-07T02:59:30.647Z,5.00
2023-03-07T03:02:18.377Z,4.73
2023-03-07T03:05:07.337Z,4.67
2023-03-07T03:07:55.290Z,4.57
2023-03-07T03:10:44.070Z,4.27
2023-03-07T03:13:32.948Z,4.38
2023-03-07T03:16:20.708Z,4.24
2023-03-07T03:19:08.949Z,4.18
2023-03-07T03:21:57.490Z,4.08
2023-03-07T03:24:49.116Z,3.98
2023-03-07T03:27:39.449Z,3.88
2023-03-07T03:30:33.013Z,3.74
2023-03-07T03:33:22.184Z,3.62
2023-03-07T03:36:13.410Z,3.62
2023-03-07T03:39:02.084Z,3.46
2023-03-07T03:41:50.726Z,3.62
2023-03-07T03:44:41.750Z,3.50
2023-03-07T03:47:29.473Z,3.35
2023-03-07T03:50:17.770Z,3.27
2023-03-07T03:53:05.682Z,3.19
2023-03-07T03:56:06.233Z,3.12
2023-03-07T03:58:56.720Z,3.23
2023-03-07T04:01:44.734Z,2.94
2023-03-07T04:04:32.674Z,3.03
2023-03-07T04:07:20.443Z,2.94
2023-03-07T04:10:09.753Z,3.07
2023-03-07T04:12:57.611Z,2.80
2023-03-07T04:15:46.044Z,2.98
2023-03-07T04:18:35.280Z,2.88
2023-03-07T04:21:23.246Z,2.88
2023-03-07T04:24:14.355Z,2.76
2023-03-07T04:27:02.318Z,2.73
2023-03-07T04:29:50.303Z,2.53
2023-03-07T04:32:42.875Z,2.78
2023-03-07T04:35:30.905Z,2.86
2023-03-07T04:38:18.781Z,2.64
2023-03-07T04:41:07.734Z,2.88
2023-03-07T04:43:55.840Z,2.94
2023-03-07T04:46:45.158Z,2.91
2023-03-07T04:49:33.082Z,2.96
2023-03-07T04:52:23.948Z,2.91
2023-03-07T04:55:13.803Z,2.86
2023-03-07T04:58:02.363Z,2.77
2023-03-07T05:00:50.706Z,2.61
2023-03-07T05:03:43.216Z,2.88
2023-03-07T05:07:41.719Z,2.55
2023-03-07T05:10:31.769Z,3.18
2023-03-07T05:13:20.146Z,3.07
2023-03-07T05:16:08.320Z,3.05
2023-03-07T05:18:56.838Z,2.81
2023-03-07T05:21:44.830Z,3.01
2023-03-07T05:24:36.439Z,2.89
2023-03-07T05:27:25.460Z,3.02
2023-03-07T05:38:08.653Z,2.68
2023-03-07T05:40:59.040Z,3.28
2023-03-07T05:43:52.657Z,3.40
2023-03-07T05:46:40.465Z,3.70
2023-03-07T05:49:28.241Z,4.94
2023-03-07T05:52:16.045Z,5.96
2023-03-07T05:55:04.738Z,7.28
2023-03-07T05:57:54.338Z,7.46
2023-03-07T06:00:42.100Z,7.38
2023-03-07T06:03:33.307Z,7.25
2023-03-07T06:06:20.993Z,6.98
2023-03-07T06:09:08.674Z,6.99
2023-03-07T06:11:56.513Z,7.41
2023-03-07T06:14:44.093Z,8.11
2023-03-07T06:17:31.868Z,8.55
2023-03-07T06:20:24.066Z,9.43
2023-03-07T06:23:14.707Z,9.36
2023-03-07T06:26:03.929Z,8.99
2023-03-07T06:28:52.078Z,9.43
2023-03-07T06:31:40.305Z,10.22
2023-03-07T06:34:28.378Z,11.11
2023-03-07T06:37:17.258Z,11.93
2023-03-07T06:40:06.536Z,12.58
2023-03-07T06:42:56.484Z,12.64
2023-03-07T06:45:44.278Z,13.17
2023-03-07T06:48:35.033Z,13.44
2023-03-07T06:51:25.572Z,13.72
2023-03-07T06:54:16.274Z,13.69
2023-03-07T06:57:04.233Z,13.45
2023-03-07T06:59:52.398Z,13.13
2023-03-07T07:02:40.285Z,13.58
2023-03-07T07:05:28.521Z,13.56
2023-03-07T07:08:16.736Z,13.37
2023-03-07T07:11:05.009Z,13.35
2023-03-07T07:13:52.929Z,13.52
2023-03-07T07:16:43.375Z,13.68
2023-03-07T07:19:32.080Z,14.02
2023-03-07T07:22:20.287Z,14.15
2023-03-07T07:25:11.450Z,14.44
2023-03-07T07:27:59.111Z,14.24
2023-03-07T07:30:46.879Z,14.66
2023-03-07T07:33:36.566Z,14.96
2023-03-07T07:36:25.719Z,15.45
2023-03-07T07:39:15.447Z,15.31
2023-03-07T07:42:05.404Z,15.32
2023-03-07T07:45:06.260Z,15.58
2023-03-07T07:47:54.046Z,15.49
2023-03-07T07:50:43.060Z,15.57
2023-03-07T07:53:32.214Z,15.81
2023-03-07T07:56:20.006Z,15.86
2023-03-07T07:59:07.838Z,16.01
2023-03-07T08:01:55.635Z,16.19
2023-03-07T08:04:43.452Z,16.29
2023-03-07T08:07:31.933Z,16.57
2023-03-07T08:10:19.764Z,16.43
2023-03-07T08:13:08.135Z,16.79
2023-03-07T08:15:55.800Z,16.71
2023-03-07T08:18:49.075Z,16.79
2023-03-07T08:21:36.755Z,16.75
2023-03-07T08:24:38.580Z,16.54
2023-03-07T08:27:37.803Z,16.77
2023-03-07T08:30:27.714Z,16.70
2023-03-07T08:33:15.579Z,16.32
2023-03-07T08:36:04.092Z,16.97
2023-03-07T08:38:52.726Z,17.30
2023-03-07T08:41:40.362Z,17.13
2023-03-07T08:44:28.062Z,17.48
2023-03-07T08:47:15.849Z,17.62
2023-03-07T08:50:04.655Z,17.56
2023-03-07T08:52:52.372Z,17.88
2023-03-07T08:55:40.207Z,17.87
2023-03-07T08:58:27.948Z,18.17
2023-03-07T09:01:15.608Z,18.01
2023-03-07T09:04:05.365Z,17.75
2023-03-07T09:06:53.187Z,17.97
2023-03-07T09:09:40.861Z,17.89
2023-03-07T09:12:28.688Z,18.51
2023-03-07T09:15:18.780Z,17.90
2023-03-07T09:18:10.177Z,18.20
2023-03-07T09:21:01.389Z,18.21
2023-03-07T09:23:49.674Z,18.09
2023-03-07T09:26:37.384Z,18.52
2023-03-07T09:29:25.321Z,18.79
2023-03-07T09:32:13.094Z,19.71
2023-03-07T09:35:01.861Z,19.49
2023-03-07T09:37:51.710Z,18.93
2023-03-07T09:40:39.821Z,19.21
2023-03-07T09:43:44.362Z,18.73
2023-03-07T09:47:12.161Z,18.98
2023-03-07T09:50:02.848Z,19.33
2023-03-07T09:52:53.994Z,19.38
2023-03-07T09:55:42.574Z,19.68
2023-03-07T09:58:30.318Z,19.66
2023-03-07T10:01:24.521Z,19.68
2023-03-07T10:04:21.701Z,19.47
2023-03-07T10:07:10.492Z,19.09
2023-03-07T10:10:02.215Z,19.63
2023-03-07T10:13:16.111Z,19.27
2023-03-07T10:16:34.538Z,19.28
2023-03-07T10:19:43.987Z,19.35
2023-03-07T10:23:01.332Z,19.85
2023-03-07T10:25:58.200Z,20.05
2023-03-07T10:28:48.448Z,20.14
2023-03-07T10:31:42.019Z,20.12
2023-03-07T10:34:32.606Z,19.12
2023-03-07T10:37:22.212Z,18.89
2023-03-07T10:40:26.609Z,19.30
2023-03-07T10:43:21.608Z,20.23
2023-03-07T10:46:26.823Z,20.02
2023-03-07T10:49:22.548Z,19.93
2023-03-07T10:52:36.426Z,19.88
2023-03-07T10:55:44.600Z,20.08
2023-03-07T10:58:32.309Z,19.79
2023-03-07T11:01:21.009Z,19.88
2023-03-07T11:04:22.216Z,19.91
2023-03-07T11:07:30.534Z,19.95
2023-03-07T11:10:36.574Z,20.16
2023-03-07T11:13:24.848Z,20.41
2023-03-07T11:16:23.440Z,20.14
2023-03-07T11:19:35.292Z,20.01
2023-03-07T11:22:28.988Z,19.81
2023-03-07T11:25:26.076Z,20.15
2023-03-07T11:28:34.480Z,20.00
2023-03-07T11:31:34.359Z,19.69
2023-03-07T11:34:28.065Z,19.71
2023-03-07T11:37:46.853Z,20.04
2023-03-07T11:40:56.694Z,19.70
2023-03-07T11:43:52.447Z,19.76
2023-03-07T11:47:05.093Z,19.45
2023-03-07T11:50:17.850Z,19.54
2023-03-07T11:53:36.353Z,19.66
2023-03-07T11:56:32.748Z,19.97
2023-03-07T11:59:48.491Z,19.87
2023-03-07T12:02:48.412Z,19.23
2023-03-07T12:05:42.343Z,18.85
2023-03-07T12:08:48.108Z,18.80
2023-03-07T12:12:17.803Z,18.25
2023-03-07T12:15:33.654Z,18.55
2023-03-07T12:18:46.664Z,18.54
2023-03-07T12:22:02.991Z,18.28
2023-03-07T12:24:50.614Z,19.07
2023-03-07T12:27:46.249Z,19.32
2023-03-07T12:30:37.695Z,19.30
2023-03-07T12:33:54.873Z,19.53
2023-03-07T12:36:45.381Z,18.95
2023-03-07T12:39:51.225Z,18.69
2023-03-07T12:42:56.321Z,18.24
2023-03-07T12:45:50.291Z,17.82
2023-03-07T12:48:59.100Z,17.70
2023-03-07T12:51:54.335Z,17.86
2023-03-07T12:54:52.900Z,18.06
2023-03-07T12:57:46.288Z,17.59
2023-03-07T13:00:40.484Z,17.85
2023-03-07T13:03:54.196Z,17.91
2023-03-07T13:06:43.415Z,18.09
2023-03-07T13:09:33.657Z,18.02
2023-03-07T13:12:24.117Z,18.42
2023-03-07T13:15:23.575Z,18.56
2023-03-07T13:18:29.767Z,18.13
2023-03-07T13:21:50.628Z,18.03
2023-03-07T13:24:45.933Z,17.91
2023-03-07T13:28:00.135Z,17.68
2023-03-07T13:31:10.793Z,17.79
2023-03-07T13:34:37.414Z,17.80
2023-03-07T13:37:54.619Z,17.98
2023-03-07T13:40:47.337Z,17.81
2023-03-07T13:43:56.660Z,17.90
2023-03-07T13:46:44.398Z,17.90
2023-03-07T13:49:37.794Z,17.92
2023-03-07T13:52:32.528Z,17.59
2023-03-07T13:55:23.716Z,17.59
2023-03-07T13:58:20.384Z,17.73
2023-03-07T14:01:23.644Z,17.62
2023-03-07T14:04:49.562Z,17.52
2023-03-07T14:07:42.359Z,17.46
2023-03-07T14:10:35.333Z,17.48
2023-03-07T14:13:45.206Z,17.51
2023-03-07T14:16:49.271Z,17.30
2023-03-07T14:19:52.854Z,17.23
2023-03-07T14:22:53.455Z,17.31
2023-03-07T14:25:51.343Z,17.42
2023-03-07T14:28:49.198Z,17.54
2023-03-07T14:31:42.206Z,17.45
2023-03-07T14:34:35.556Z,17.16
2023-03-07T14:37:33.025Z,17.03
2023-03-07T14:40:47.169Z,16.92
2023-03-07T14:44:03.010Z,16.80
2023-03-07T14:47:28.265Z,16.73
2023-03-07T14:50:20.570Z,16.65
2023-03-07T14:53:17.031Z,16.78
2023-03-07T14:56:07.967Z,16.54
2023-03-07T14:58:59.768Z,16.47
2023-03-07T15:01:49.139Z,16.25
2023-03-07T15:04:37.286Z,16.12
2023-03-07T15:07:24.972Z,16.21
2023-03-07T15:10:19.137Z,15.92
2023-03-07T15:13:24.714Z,15.90
2023-03-07T15:16:25.432Z,15.80
2023-03-07T15:19:19.589Z,15.53
2023-03-07T15:22:20.632Z,15.62
2023-03-07T15:25:17.896Z,15.56
2023-03-07T15:28:15.832Z,15.56
2023-03-07T15:31:05.146Z,15.47
2023-03-07T15:33:52.879Z,15.34
2023-03-07T15:36:40.630Z,15.27
2023-03-07T15:39:36.810Z,15.39
2023-03-07T15:42:24.806Z,15.37
2023-03-07T15:45:35.714Z,15.10
2023-03-07T15:48:44.568Z,14.98
2023-03-07T15:51:38.006Z,14.88
2023-03-07T15:54:35.374Z,14.48
2023-03-07T15:57:38.656Z,14.53
2023-03-07T16:00:35.240Z,14.43
2023-03-07T16:03:28.911Z,14.31
2023-03-07T16:06:44.230Z,14.34
2023-03-07T16:09:33.520Z,14.18
2023-03-07T16:12:24.124Z,14.10
2023-03-07T16:15:18.007Z,13.97
2023-03-07T16:18:05.917Z,13.84
2023-03-07T16:20:53.635Z,13.75
2023-03-07T16:23:41.324Z,13.53
2023-03-07T16:26:28.995Z,13.50
2023-03-07T16:29:19.841Z,13.50
2023-03-07T16:32:12.949Z,13.34
2023-03-07T16:35:00.744Z,13.17
2023-03-07T16:37:48.373Z,13.09
2023-03-07T16:40:44.152Z,13.11
2023-03-07T16:43:37.943Z,13.06
2023-03-07T16:46:26.690Z,13.03
2023-03-07T16:49:20.462Z,12.91
2023-03-07T16:52:14.654Z,12.86
2023-03-07T16:55:03.493Z,12.73
2023-03-07T16:57:56.658Z,12.65
2023-03-07T17:00:44.599Z,12.80
2023-03-07T17:03:32.599Z,12.77
2023-03-07T17:06:25.448Z,12.63
2023-03-07T17:09:23.521Z,12.53
2023-03-07T17:12:14.408Z,12.30
2023-03-07T17:15:08.680Z,12.34
2023-03-07T17:17:59.274Z,12.30
2023-03-07T17:20:47.135Z,12.09
2023-03-07T17:23:35.079Z,12.29
2023-03-07T17:26:30.264Z,12.14
2023-03-07T17:29:42.235Z,12.15
2023-03-07T17:32:29.968Z,12.03
2023-03-07T17:35:19.509Z,12.09
2023-03-07T17:38:10.469Z,12.19
2023-03-07T17:40:58.288Z,12.30
2023-03-07T17:43:49.067Z,12.23
2023-03-07T17:46:36.746Z,12.14
2023-03-07T17:49:26.836Z,11.96
2023-03-07T17:52:15.222Z,12.23
2023-03-07T17:55:03.962Z,12.20
2023-03-07T17:57:52.947Z,12.19
2023-03-07T18:00:40.704Z,12.23
2023-03-07T18:03:28.380Z,12.21
2023-03-07T18:06:16.170Z,12.07
2023-03-07T18:09:09.606Z,12.17
2023-03-07T18:11:57.388Z,12.17
2023-03-07T18:14:48.029Z,12.08
2023-03-07T18:17:47.222Z,12.13
2023-03-07T18:20:36.238Z,12.16
2023-03-07T18:23:24.232Z,12.10
2023-03-07T18:26:14.681Z,12.03
2023-03-07T18:29:05.324Z,11.89
2023-03-07T18:31:56.819Z,11.87
2023-03-07T18:34:46.831Z,11.70
2023-03-07T18:37:36.780Z,11.58
2023-03-07T18:40:25.093Z,11.56
2023-03-07T18:43:15.410Z,11.30
2023-03-07T18:46:12.166Z,11.03
2023-03-07T18:49:01.168Z,10.82
2023-03-07T18:51:49.265Z,10.70
2023-03-07T18:54:36.941Z,10.34
2023-03-07T18:57:24.695Z,10.50
2023-03-07T19:00:12.746Z,10.31
2023-03-07T19:03:00.401Z,10.30
2023-03-07T19:05:51.612Z,10.37
2023-03-07T19:08:40.271Z,10.05
2023-03-07T19:11:27.980Z,9.85
2023-03-07T19:14:15.792Z,9.85
2023-03-07T19:17:03.647Z,9.70
2023-03-07T19:19:54.164Z,9.51
2023-03-07T19:22:44.378Z,9.35
2023-03-07T19:25:35.249Z,9.23
2023-03-07T19:28:22.926Z,9.31
2023-03-07T19:31:11.997Z,9.37
2023-03-07T19:34:03.486Z,9.00
2023-03-07T19:36:53.325Z,8.83
2023-03-07T19:39:50.759Z,8.67
2023-03-07T19:42:39.141Z,8.28
2023-03-07T19:45:35.369Z,8.50
2023-03-07T19:48:24.042Z,8.42
2023-03-07T19:51:15.648Z,8.37
2023-03-07T19:54:04.245Z,8.24
2023-03-07T19:56:53.332Z,8.17
2023-03-07T20:00:05.813Z,8.09
2023-03-07T20:03:00.447Z,8.10
2023-03-07T20:05:49.250Z,8.05
2023-03-07T20:08:37.606Z,7.96
2023-03-07T20:11:27.484Z,7.67
2023-03-07T20:14:15.403Z,7.64
2023-03-07T20:17:03.161Z,7.69
2023-03-07T20:19:52.124Z,7.53
2023-03-07T20:22:41.566Z,7.65
2023-03-07T20:25:30.634Z,7.58
2023-03-07T20:28:18.410Z,7.52
2023-03-07T20:31:09.589Z,7.45
2023-03-07T20:33:59.789Z,7.38
2023-03-07T20:36:47.542Z,7.36
2023-03-07T20:39:41.460Z,7.24
2023-03-07T20:42:29.105Z,7.33
2023-03-07T20:45:19.919Z,7.31
2023-03-07T20:48:07.798Z,7.01
2023-03-07T20:50:55.513Z,7.07
2023-03-07T20:53:43.329Z,7.08
2023-03-07T20:56:32.800Z,7.08
2023-03-07T20:59:21.313Z,7.11
2023-03-07T21:02:11.104Z,7.09
2023-03-07T21:04:58.785Z,7.01
2023-03-07T21:07:46.539Z,6.99
2023-03-07T21:10:34.127Z,6.98
2023-03-07T21:13:24.065Z,6.98
2023-03-07T21:16:17.874Z,6.88
2023-03-07T21:19:07.586Z,6.81
2023-03-07T21:21:55.343Z,6.63
2023-03-07T21:24:43.055Z,6.51
2023-03-07T21:27:30.735Z,6.53
2023-03-07T21:30:18.507Z,6.55
2023-03-07T21:33:06.143Z,6.44
2023-03-07T21:35:57.672Z,6.34
2023-03-07T21:38:47.003Z,6.40
2023-03-07T21:41:35.093Z,6.35
2023-03-07T21:44:22.821Z,6.28
2023-03-07T21:47:10.453Z,6.22
2023-03-07T21:50:01.060Z,6.29
2023-03-07T21:52:49.044Z,6.11
2023-03-07T21:55:37.156Z,6.15
2023-03-07T21:58:25.388Z,6.19
2023-03-07T22:01:18.977Z,6.10
2023-03-07T22:04:06.734Z,6.04
2023-03-07T22:06:54.390Z,6.08
2023-03-07T22:09:42.066Z,5.98
2023-03-07T22:12:30.418Z,5.50
2023-03-07T22:15:18.161Z,5.79
2023-03-07T22:18:05.923Z,5.74
2023-03-07T22:20:55.215Z,5.76
2023-03-07T22:23:43.595Z,5.58
2023-03-07T22:26:32.784Z,5.65
2023-03-07T22:29:20.517Z,5.46
2023-03-07T22:32:11.132Z,5.58
2023-03-07T22:34:58.865Z,5.52
2023-03-07T22:37:46.556Z,5.37
2023-03-07T22:40:34.275Z,5.40
2023-03-07T22:43:21.944Z,5.47
2023-03-07T22:46:10.510Z,5.53
2023-03-07T22:48:58.313Z,5.48
2023-03-07T22:51:45.951Z,5.39
2023-03-07T22:54:35.250Z,5.26
2023-03-07T22:57:23.143Z,5.25
2023-03-07T23:00:12.296Z,5.05
2023-03-07T23:03:00.103Z,5.06
2023-03-07T23:05:47.916Z,5.11
2023-03-07T23:08:35.913Z,4.77
2023-03-07T23:11:25.195Z,5.07
2023-03-07T23:14:12.850Z,5.20
2023-03-07T23:17:00.492Z,5.19
2023-03-07T23:19:49.155Z,5.13
2023-03-07T23:22:36.912Z,5.05
2023-03-07T23:25:28.429Z,4.98
2023-03-07T23:28:16.166Z,5.04
2023-03-07T23:31:04.698Z,5.00
2023-03-07T23:34:03.694Z,5.14
2023-03-07T23:36:51.342Z,5.05
2023-03-07T23:39:39.341Z,5.05
2023-03-07T23:42:27.128Z,5.06
2023-03-07T23:45:14.993Z,4.98
2023-03-07T23:48:02.741Z,5.19
2023-03-07T23:51:03.425Z,5.05
2023-03-07T23:54:03.256Z,5.17
2023-03-07T23:56:54.004Z,5.01
2023-03-07T23:59:41.678Z,5.03
